Opal Express — V7KB8 — position and weather

sailwx.info

Track history (hours):
 
Tides and Currents Weather Stations Pressure Air Temp Water Temp Dewpoint Dewpoint Depression Visibility Wind Speed Wind Dir Waves Ship Positions

Opal Express

Last reported at 2017-Aug-24 13:07 UTC. Time now 2017-Sep-22 04:49 UTC.
Position N 34°51' E 140°16'.
Warning: this ship's position is 28 days out of date.

Length 179 m; draft 7.8 m.

Type: Tanker. MMSI: 538002500.

Date/timePositionNaut miles runAvg speedWind from/ knotsBaromVisibWave heightAir tempDewpointWater temp
2017-Aug-24 13:07N 34°51' E 140°16'2015.5
2017-Aug-24 11:49N 34°47' E 139°52'615.6
2017-Aug-24 11:28N 34°47' E 139°45'714.7
2017-Aug-24 11:00N 34°52' E 139°40'713.7
2017-Aug-24 10:30N 34°59' E 139°40'713.0
2017-Aug-24 10:00N 35°05' E 139°43'611.6
2017-Aug-24 09:30N 35°10' E 139°45'810.2
2017-Aug-24 08:43N 35°18' E 139°44'511.4
2017-Aug-24 08:15N 35°24' E 139°43'312.0
2017-Aug-24 08:00N 35°26' E 139°45'1112.3
2017-Aug-24 07:07N 35°32' E 139°56'1 9.7
2017-Aug-24 06:58N 35°33' E 139°57'1 1.6
2017-Aug-24 06:20N 35°33' E 139°58'0 0.0
2017-Aug-24 03:38N 35°33' E 139°58'0 0.1
2017-Aug-24 02:02N 35°33' E 139°58'0 0.1
2017-Aug-24 01:59N 35°33' E 139°58'0 0.1
2017-Aug-24 01:29N 35°33' E 139°58'0 0.3
2017-Aug-24 01:01N 35°33' E 139°58'2 3.8
2017-Aug-24 00:31N 35°32' E 139°60'2 0.1
2017-Aug-23 00:58N 35°30' E 140°01'1 1.7
2017-Aug-23 00:30N 35°30' E 140°01'5 7.9
2017-Aug-22 23:49N 35°35' E 140°04'1 3.1
2017-Aug-22 23:30N 35°36' E 140°05'0 0.0
2017-Aug-22 08:37N 35°36' E 140°05'0 0.1
2017-Aug-22 08:30N 35°36' E 140°05'1 1.3
2017-Aug-22 08:00N 35°35' E 140°04'3 5.0
2017-Aug-22 07:30N 35°34' E 140°01'3 5.9
2017-Aug-22 07:00N 35°33' E 139°58'3 5.2
2017-Aug-22 06:30N 35°31' E 139°56'3 5.8
2017-Aug-22 06:00N 35°29' E 139°53'4 8.2
2017-Aug-22 05:30N 35°27' E 139°49'611.2
2017-Aug-22 05:00N 35°22' E 139°45'510.2
2017-Aug-22 04:30N 35°17' E 139°46'611.0
2017-Aug-22 04:00N 35°12' E 139°47'4 8.3
2017-Aug-22 03:30N 35°07' E 139°45'4 8.9
2017-Aug-22 03:00N 35°03' E 139°44'4 6.8
2017-Aug-22 02:27N 34°60' E 139°42'  
Track history (hours):
 
Tides and Currents Weather Stations Pressure Air Temp Water Temp Dewpoint Dewpoint Depression Visibility Wind Speed Wind Dir Waves Ship Positions

Opal Express

Last reported at 2017-Aug-24 13:07 UTC. Time now 2017-Sep-22 04:49 UTC.
Position N 34°51' E 140°16'.
Warning: this ship's position is 28 days out of date.

Length 179 m; draft 7.8 m.

Type: Tanker. MMSI: 538002500.

Date/timePositionNaut miles runAvg speedWind from/ knotsBaromVisibWave heightAir tempDewpointWater temp
2017-Aug-24 13:07N 34°51' E 140°16'2015.5
2017-Aug-24 11:49N 34°47' E 139°52'615.6
2017-Aug-24 11:28N 34°47' E 139°45'714.7
2017-Aug-24 11:00N 34°52' E 139°40'713.7
2017-Aug-24 10:30N 34°59' E 139°40'713.0
2017-Aug-24 10:00N 35°05' E 139°43'611.6
2017-Aug-24 09:30N 35°10' E 139°45'810.2
2017-Aug-24 08:43N 35°18' E 139°44'511.4
2017-Aug-24 08:15N 35°24' E 139°43'312.0
2017-Aug-24 08:00N 35°26' E 139°45'1112.3
2017-Aug-24 07:07N 35°32' E 139°56'1 9.7
2017-Aug-24 06:58N 35°33' E 139°57'1 1.6
2017-Aug-24 06:20N 35°33' E 139°58'0 0.0
2017-Aug-24 03:38N 35°33' E 139°58'0 0.1
2017-Aug-24 02:02N 35°33' E 139°58'0 0.1
2017-Aug-24 01:59N 35°33' E 139°58'0 0.1
2017-Aug-24 01:29N 35°33' E 139°58'0 0.3
2017-Aug-24 01:01N 35°33' E 139°58'2 3.8
2017-Aug-24 00:31N 35°32' E 139°60'2 0.1
2017-Aug-23 00:58N 35°30' E 140°01'1 1.7
2017-Aug-23 00:30N 35°30' E 140°01'5 7.9
2017-Aug-22 23:49N 35°35' E 140°04'1 3.1
2017-Aug-22 23:30N 35°36' E 140°05'0 0.0
2017-Aug-22 08:37N 35°36' E 140°05'0 0.1
2017-Aug-22 08:30N 35°36' E 140°05'1 1.3
2017-Aug-22 08:00N 35°35' E 140°04'3 5.0
2017-Aug-22 07:30N 35°34' E 140°01'3 5.9
2017-Aug-22 07:00N 35°33' E 139°58'3 5.2
2017-Aug-22 06:30N 35°31' E 139°56'3 5.8
2017-Aug-22 06:00N 35°29' E 139°53'4 8.2
2017-Aug-22 05:30N 35°27' E 139°49'611.2
2017-Aug-22 05:00N 35°22' E 139°45'510.2
2017-Aug-22 04:30N 35°17' E 139°46'611.0
2017-Aug-22 04:00N 35°12' E 139°47'4 8.3
2017-Aug-22 03:30N 35°07' E 139°45'4 8.9
2017-Aug-22 03:00N 35°03' E 139°44'4 6.8
2017-Aug-22 02:27N 34°60' E 139°42'  

Dump ship's entire track history